sensor_id;sensor_type;location;lat;lon;timestamp;pressure;altitude;pressure_sealevel;temperature;humidity
72802;BME280;61891;55.818;37.084;2023-05-29T00:02:23;99815.09;;;10.09;53.81
72802;BME280;61891;55.818;37.084;2023-05-29T00:04:48;99821.22;;;10.09;53.80
72802;BME280;61891;55.818;37.084;2023-05-29T00:07:16;99788.94;;;9.88;54.01
72802;BME280;61891;55.818;37.084;2023-05-29T00:09:42;99817.53;;;10.02;53.83
72802;BME280;61891;55.818;37.084;2023-05-29T00:12:07;99797.72;;;9.88;53.80
72802;BME280;61891;55.818;37.084;2023-05-29T00:14:33;99792.50;;;9.79;53.90
72802;BME280;61891;55.818;37.084;2023-05-29T00:16:59;99801.13;;;9.81;53.87
72802;BME280;61891;55.818;37.084;2023-05-29T00:19:24;99793.94;;;9.73;54.04
72802;BME280;61891;55.818;37.084;2023-05-29T00:21:50;99805.06;;;9.77;53.56
72802;BME280;61891;55.818;37.084;2023-05-29T00:24:16;99827.53;;;9.90;54.32
72802;BME280;61891;55.818;37.084;2023-05-29T00:26:43;99815.72;;;9.85;54.16
72802;BME280;61891;55.818;37.084;2023-05-29T00:29:08;99779.31;;;9.51;53.92
72802;BME280;61891;55.818;37.084;2023-05-29T00:31:34;99812.91;;;9.68;54.10
72802;BME280;61891;55.818;37.084;2023-05-29T00:34:02;99826.81;;;9.70;54.29
72802;BME280;61891;55.818;37.084;2023-05-29T00:36:27;99830.75;;;9.66;54.10
72802;BME280;61891;55.818;37.084;2023-05-29T00:38:55;99834.00;;;9.60;54.25
72802;BME280;61891;55.818;37.084;2023-05-29T00:41:20;99812.66;;;9.44;54.81
72802;BME280;61891;55.818;37.084;2023-05-29T00:43:46;99835.19;;;9.48;54.68
72802;BME280;61891;55.818;37.084;2023-05-29T00:46:13;99839.66;;;9.48;54.97
72802;BME280;61891;55.818;37.084;2023-05-29T00:48:41;99787.78;;;9.10;54.63
72802;BME280;61891;55.818;37.084;2023-05-29T00:51:08;99839.56;;;9.40;54.86
72802;BME280;61891;55.818;37.084;2023-05-29T00:53:36;99839.84;;;9.36;55.04
72802;BME280;61891;55.818;37.084;2023-05-29T00:56:02;99834.72;;;9.35;55.19
72802;BME280;61891;55.818;37.084;2023-05-29T00:58:28;99752.44;;;8.83;55.21
72802;BME280;61891;55.818;37.084;2023-05-29T01:00:54;99835.28;;;9.29;55.23
72802;BME280;61891;55.818;37.084;2023-05-29T01:03:20;99844.75;;;9.31;55.26
72802;BME280;61891;55.818;37.084;2023-05-29T01:05:45;99838.09;;;9.27;54.95
72802;BME280;61891;55.818;37.084;2023-05-29T01:08:14;99803.84;;;8.98;55.29
72802;BME280;61891;55.818;37.084;2023-05-29T01:10:40;99842.97;;;9.22;55.33
72802;BME280;61891;55.818;37.084;2023-05-29T01:15:54;99821.75;;;9.04;55.60
72802;BME280;61891;55.818;37.084;2023-05-29T01:19:00;99849.69;;;9.17;55.82
72802;BME280;61891;55.818;37.084;2023-05-29T01:22:00;99842.19;;;9.12;55.93
72802;BME280;61891;55.818;37.084;2023-05-29T01:24:58;99850.56;;;9.08;56.33
72802;BME280;61891;55.818;37.084;2023-05-29T01:31:00;99850.84;;;9.04;55.90
72802;BME280;61891;55.818;37.084;2023-05-29T01:33:27;99849.34;;;9.02;56.55
72802;BME280;61891;55.818;37.084;2023-05-29T01:35:53;99824.19;;;8.88;55.70
72802;BME280;61891;55.818;37.084;2023-05-29T01:38:19;99858.78;;;9.04;55.87
72802;BME280;61891;55.818;37.084;2023-05-29T01:40:45;99859.47;;;9.07;56.07
72802;BME280;61891;55.818;37.084;2023-05-29T01:43:13;99824.06;;;8.90;55.85
72802;BME280;61891;55.818;37.084;2023-05-29T01:45:39;99856.41;;;9.11;56.06
72802;BME280;61891;55.818;37.084;2023-05-29T01:48:06;99851.94;;;9.12;56.72
72802;BME280;61891;55.818;37.084;2023-05-29T01:50:34;99856.94;;;9.15;55.97
72802;BME280;61891;55.818;37.084;2023-05-29T01:53:00;99854.97;;;9.17;55.89
72802;BME280;61891;55.818;37.084;2023-05-29T01:55:26;99812.50;;;8.91;55.84
72802;BME280;61891;55.818;37.084;2023-05-29T01:57:53;99845.13;;;9.09;56.07
72802;BME280;61891;55.818;37.084;2023-05-29T02:00:20;99858.31;;;9.19;56.29
72802;BME280;61891;55.818;37.084;2023-05-29T02:02:46;99854.69;;;9.20;57.19
72802;BME280;61891;55.818;37.084;2023-05-29T02:05:13;99828.03;;;9.03;56.43
72802;BME280;61891;55.818;37.084;2023-05-29T02:07:39;99799.72;;;8.86;56.58
72802;BME280;61891;55.818;37.084;2023-05-29T02:10:05;99809.13;;;8.98;56.39
72802;BME280;61891;55.818;37.084;2023-05-29T02:12:31;99841.31;;;9.21;56.38
72802;BME280;61891;55.818;37.084;2023-05-29T02:14:57;99713.53;;;8.38;56.34
72802;BME280;61891;55.818;37.084;2023-05-29T02:17:23;99823.00;;;9.10;56.16
72802;BME280;61891;55.818;37.084;2023-05-29T02:19:50;99868.06;;;9.46;56.85
72802;BME280;61891;55.818;37.084;2023-05-29T02:22:17;99763.53;;;8.87;55.96
72802;BME280;61891;55.818;37.084;2023-05-29T02:24:43;99863.84;;;9.53;56.10
72802;BME280;61891;55.818;37.084;2023-05-29T02:27:09;99866.75;;;9.59;56.20
72802;BME280;61891;55.818;37.084;2023-05-29T02:29:35;99867.97;;;9.65;55.85
72802;BME280;61891;55.818;37.084;2023-05-29T02:32:01;99869.72;;;9.74;56.03
72802;BME280;61891;55.818;37.084;2023-05-29T02:34:26;99874.25;;;9.82;56.01
72802;BME280;61891;55.818;37.084;2023-05-29T02:36:52;99864.06;;;9.87;55.98
72802;BME280;61891;55.818;37.084;2023-05-29T02:39:18;99871.56;;;9.91;55.89
72802;BME280;61891;55.818;37.084;2023-05-29T02:41:44;99856.66;;;9.90;55.94
72802;BME280;61891;55.818;37.084;2023-05-29T02:44:10;99867.69;;;10.03;55.88
72802;BME280;61891;55.818;37.084;2023-05-29T02:46:36;99821.47;;;9.80;56.05
72802;BME280;61891;55.818;37.084;2023-05-29T02:49:02;99850.00;;;10.04;55.83
72802;BME280;61891;55.818;37.084;2023-05-29T02:51:27;99816.78;;;9.92;55.92
72802;BME280;61891;55.818;37.084;2023-05-29T02:53:53;99837.13;;;10.09;55.74
72802;BME280;61891;55.818;37.084;2023-05-29T02:56:19;99869.16;;;10.33;55.99
72802;BME280;61891;55.818;37.084;2023-05-29T02:58:52;99874.56;;;10.42;56.02
72802;BME280;61891;55.818;37.084;2023-05-29T03:01:19;99878.78;;;10.52;55.75
72802;BME280;61891;55.818;37.084;2023-05-29T03:03:44;99879.69;;;10.61;55.82
72802;BME280;61891;55.818;37.084;2023-05-29T03:06:11;99874.91;;;10.64;56.39
72802;BME280;61891;55.818;37.084;2023-05-29T03:08:39;99881.56;;;10.69;55.72
72802;BME280;61891;55.818;37.084;2023-05-29T03:11:11;99889.25;;;10.80;55.53
72802;BME280;61891;55.818;37.084;2023-05-29T03:13:37;99882.50;;;10.85;55.61
72802;BME280;61891;55.818;37.084;2023-05-29T03:16:06;99887.88;;;10.93;55.20
72802;BME280;61891;55.818;37.084;2023-05-29T03:18:34;99886.25;;;11.01;55.25
72802;BME280;61891;55.818;37.084;2023-05-29T03:21:01;99888.44;;;11.05;55.00
72802;BME280;61891;55.818;37.084;2023-05-29T03:23:28;99892.47;;;11.17;54.92
72802;BME280;61891;55.818;37.084;2023-05-29T03:25:54;99850.41;;;10.96;54.60
72802;BME280;61891;55.818;37.084;2023-05-29T03:28:20;99888.25;;;11.33;54.79
72802;BME280;61891;55.818;37.084;2023-05-29T03:30:46;99907.38;;;11.44;54.51
72802;BME280;61891;55.818;37.084;2023-05-29T03:33:15;99889.00;;;11.51;54.48
72802;BME280;61891;55.818;37.084;2023-05-29T03:35:59;99894.16;;;11.60;54.26
72802;BME280;61891;55.818;37.084;2023-05-29T03:38:25;99905.13;;;11.66;53.86
72802;BME280;61891;55.818;37.084;2023-05-29T03:40:55;99903.50;;;11.73;53.74
72802;BME280;61891;55.818;37.084;2023-05-29T03:43:20;99893.19;;;11.70;53.43
72802;BME280;61891;55.818;37.084;2023-05-29T03:45:47;99905.91;;;11.84;53.46
72802;BME280;61891;55.818;37.084;2023-05-29T03:48:13;99887.94;;;11.78;52.96
72802;BME280;61891;55.818;37.084;2023-05-29T03:50:40;99886.31;;;11.85;52.91
72802;BME280;61891;55.818;37.084;2023-05-29T03:53:06;99904.28;;;11.99;52.67
72802;BME280;61891;55.818;37.084;2023-05-29T03:55:32;99880.34;;;11.91;52.60
72802;BME280;61891;55.818;37.084;2023-05-29T03:57:58;99918.25;;;12.17;52.13
72802;BME280;61891;55.818;37.084;2023-05-29T04:00:25;99927.09;;;12.26;52.23
72802;BME280;61891;55.818;37.084;2023-05-29T04:02:51;99911.63;;;12.30;52.10
72802;BME280;61891;55.818;37.084;2023-05-29T04:05:18;99924.28;;;12.44;51.93
72802;BME280;61891;55.818;37.084;2023-05-29T04:07:45;99908.66;;;12.41;51.64
72802;BME280;61891;55.818;37.084;2023-05-29T04:10:11;99928.44;;;12.63;51.72
72802;BME280;61891;55.818;37.084;2023-05-29T04:12:37;99925.44;;;12.74;51.37
72802;BME280;61891;55.818;37.084;2023-05-29T04:15:04;99896.69;;;12.69;51.65
72802;BME280;61891;55.818;37.084;2023-05-29T04:17:31;99919.13;;;12.91;51.21
72802;BME280;61891;55.818;37.084;2023-05-29T04:19:57;99926.59;;;13.04;50.61
72802;BME280;61891;55.818;37.084;2023-05-29T04:22:23;99920.25;;;13.05;50.58
72802;BME280;61891;55.818;37.084;2023-05-29T04:24:49;99897.00;;;12.99;50.45
72802;BME280;61891;55.818;37.084;2023-05-29T04:27:14;99891.81;;;13.05;50.68
72802;BME280;61891;55.818;37.084;2023-05-29T04:29:43;99930.69;;;13.39;50.27
72802;BME280;61891;55.818;37.084;2023-05-29T04:32:09;99884.81;;;13.20;49.78
72802;BME280;61891;55.818;37.084;2023-05-29T04:34:38;99884.13;;;13.35;49.67
72802;BME280;61891;55.818;37.084;2023-05-29T04:37:11;99919.78;;;13.65;49.58
72802;BME280;61891;55.818;37.084;2023-05-29T04:39:40;99906.13;;;13.68;49.34
72802;BME280;61891;55.818;37.084;2023-05-29T04:42:07;99904.78;;;13.72;49.29
72802;BME280;61891;55.818;37.084;2023-05-29T04:44:35;99876.81;;;13.68;49.03
72802;BME280;61891;55.818;37.084;2023-05-29T04:47:01;99913.28;;;13.98;48.92
72802;BME280;61891;55.818;37.084;2023-05-29T04:49:28;99932.16;;;14.19;48.54
72802;BME280;61891;55.818;37.084;2023-05-29T04:51:54;99928.75;;;14.34;48.42
72802;BME280;61891;55.818;37.084;2023-05-29T04:54:22;99939.03;;;14.45;48.34
72802;BME280;61891;55.818;37.084;2023-05-29T04:56:52;99932.63;;;14.54;48.15
72802;BME280;61891;55.818;37.084;2023-05-29T04:59:19;99938.38;;;14.66;47.91
72802;BME280;61891;55.818;37.084;2023-05-29T05:01:45;99929.75;;;14.78;47.78
72802;BME280;61891;55.818;37.084;2023-05-29T05:04:11;99930.97;;;14.91;47.58
72802;BME280;61891;55.818;37.084;2023-05-29T05:06:37;99897.00;;;14.84;47.43
72802;BME280;61891;55.818;37.084;2023-05-29T05:09:03;99929.91;;;15.14;47.05
72802;BME280;61891;55.818;37.084;2023-05-29T05:11:29;99939.69;;;15.37;46.68
72802;BME280;61891;55.818;37.084;2023-05-29T05:13:55;99939.06;;;15.49;46.76
72802;BME280;61891;55.818;37.084;2023-05-29T05:16:21;99941.16;;;15.62;46.41
72802;BME280;61891;55.818;37.084;2023-05-29T05:18:47;99943.16;;;15.75;46.04
72802;BME280;61891;55.818;37.084;2023-05-29T05:21:12;99938.72;;;15.82;45.54
72802;BME280;61891;55.818;37.084;2023-05-29T05:23:40;99931.44;;;15.91;45.09
72802;BME280;61891;55.818;37.084;2023-05-29T05:26:09;99938.59;;;16.05;45.32
72802;BME280;61891;55.818;37.084;2023-05-29T05:28:35;99942.25;;;16.19;45.00
72802;BME280;61891;55.818;37.084;2023-05-29T05:31:01;99938.69;;;16.33;44.52
72802;BME280;61891;55.818;37.084;2023-05-29T05:33:29;99892.19;;;16.13;44.28
72802;BME280;61891;55.818;37.084;2023-05-29T05:35:56;99932.53;;;16.54;43.30
72802;BME280;61891;55.818;37.084;2023-05-29T05:38:21;99930.56;;;16.62;44.07
72802;BME280;61891;55.818;37.084;2023-05-29T05:40:47;99933.38;;;16.75;43.49
72802;BME280;61891;55.818;37.084;2023-05-29T05:43:21;99911.28;;;16.67;43.03
72802;BME280;61891;55.818;37.084;2023-05-29T05:46:16;99939.53;;;16.97;42.78
72802;BME280;61891;55.818;37.084;2023-05-29T05:48:43;99940.03;;;17.07;42.18
72802;BME280;61891;55.818;37.084;2023-05-29T05:51:09;99927.66;;;17.06;41.70
72802;BME280;61891;55.818;37.084;2023-05-29T05:53:36;99897.69;;;16.96;41.78
72802;BME280;61891;55.818;37.084;2023-05-29T05:56:02;99887.47;;;17.06;41.20
72802;BME280;61891;55.818;37.084;2023-05-29T05:58:28;99937.81;;;17.46;40.80
72802;BME280;61891;55.818;37.084;2023-05-29T06:00:55;99889.88;;;17.29;41.00
72802;BME280;61891;55.818;37.084;2023-05-29T06:03:23;99914.16;;;17.56;40.16
72802;BME280;61891;55.818;37.084;2023-05-29T06:06:00;99898.69;;;17.58;40.19
72802;BME280;61891;55.818;37.084;2023-05-29T06:08:26;99934.13;;;17.88;40.45
72802;BME280;61891;55.818;37.084;2023-05-29T06:10:52;99948.03;;;18.04;38.72
72802;BME280;61891;55.818;37.084;2023-05-29T06:13:18;99940.81;;;18.12;40.41
72802;BME280;61891;55.818;37.084;2023-05-29T06:15:51;99944.78;;;18.22;40.12
72802;BME280;61891;55.818;37.084;2023-05-29T06:18:17;99927.03;;;18.21;38.12
72802;BME280;61891;55.818;37.084;2023-05-29T06:20:43;99938.00;;;18.33;38.22
72802;BME280;61891;55.818;37.084;2023-05-29T06:23:08;99936.97;;;18.41;37.78
72802;BME280;61891;55.818;37.084;2023-05-29T06:25:36;99949.13;;;18.30;38.09
72802;BME280;61891;55.818;37.084;2023-05-29T06:28:02;99946.84;;;18.27;37.23
72802;BME280;61891;55.818;37.084;2023-05-29T06:30:31;99958.03;;;18.37;36.75
72802;BME280;61891;55.818;37.084;2023-05-29T06:32:57;99933.22;;;18.28;36.73
72802;BME280;61891;55.818;37.084;2023-05-29T06:35:28;99951.25;;;18.54;35.76
72802;BME280;61891;55.818;37.084;2023-05-29T06:37:56;99949.25;;;18.70;36.68
72802;BME280;61891;55.818;37.084;2023-05-29T06:40:22;99958.13;;;18.83;36.35
72802;BME280;61891;55.818;37.084;2023-05-29T06:42:48;99953.59;;;18.84;35.73
72802;BME280;61891;55.818;37.084;2023-05-29T06:45:14;99961.03;;;19.02;35.07
72802;BME280;61891;55.818;37.084;2023-05-29T06:47:42;99967.66;;;19.12;34.49
72802;BME280;61891;55.818;37.084;2023-05-29T06:50:08;99958.97;;;19.17;35.17
72802;BME280;61891;55.818;37.084;2023-05-29T06:52:36;99908.13;;;19.02;34.33
72802;BME280;61891;55.818;37.084;2023-05-29T06:55:24;99915.13;;;19.16;34.18
72802;BME280;61891;55.818;37.084;2023-05-29T06:57:50;99971.34;;;19.57;33.72
72802;BME280;61891;55.818;37.084;2023-05-29T07:00:16;99956.84;;;19.65;33.56
72802;BME280;61891;55.818;37.084;2023-05-29T07:02:51;99957.84;;;19.77;33.78
72802;BME280;61891;55.818;37.084;2023-05-29T07:05:17;99923.53;;;19.59;34.02
72802;BME280;61891;55.818;37.084;2023-05-29T07:07:43;99947.25;;;19.89;34.24
72802;BME280;61891;55.818;37.084;2023-05-29T07:10:11;99947.91;;;19.78;34.04
72802;BME280;61891;55.818;37.084;2023-05-29T07:12:37;99950.63;;;19.71;33.44
72802;BME280;61891;55.818;37.084;2023-05-29T07:15:04;99955.19;;;19.57;33.38
72802;BME280;61891;55.818;37.084;2023-05-29T07:17:30;99972.97;;;19.65;33.34
72802;BME280;61891;55.818;37.084;2023-05-29T07:20:08;99969.25;;;19.59;31.88
72802;BME280;61891;55.818;37.084;2023-05-29T07:22:35;99919.03;;;19.33;32.45
72802;BME280;61891;55.818;37.084;2023-05-29T07:25:01;99944.25;;;19.52;32.05
72802;BME280;61891;55.818;37.084;2023-05-29T07:27:29;99914.91;;;19.31;31.46
72802;BME280;61891;55.818;37.084;2023-05-29T07:29:55;99957.69;;;19.59;29.94
72802;BME280;61891;55.818;37.084;2023-05-29T07:32:20;99948.78;;;19.58;29.90
72802;BME280;61891;55.818;37.084;2023-05-29T07:34:47;99951.22;;;19.73;30.42
72802;BME280;61891;55.818;37.084;2023-05-29T07:37:15;99947.06;;;19.84;30.25
72802;BME280;61891;55.818;37.084;2023-05-29T07:39:42;99922.44;;;19.80;29.68
72802;BME280;61891;55.818;37.084;2023-05-29T07:42:41;99951.16;;;19.93;29.82
72802;BME280;61891;55.818;37.084;2023-05-29T07:45:07;99948.00;;;20.03;29.65
72802;BME280;61891;55.818;37.084;2023-05-29T07:47:33;99954.38;;;20.15;28.73
72802;BME280;61891;55.818;37.084;2023-05-29T07:49:59;99891.56;;;19.89;29.55
72802;BME280;61891;55.818;37.084;2023-05-29T07:52:27;99936.13;;;20.17;28.83
72802;BME280;61891;55.818;37.084;2023-05-29T07:54:54;99931.94;;;20.27;29.08
72802;BME280;61891;55.818;37.084;2023-05-29T07:57:21;99956.44;;;20.57;28.84
72802;BME280;61891;55.818;37.084;2023-05-29T07:59:50;99900.63;;;20.33;28.91
72802;BME280;61891;55.818;37.084;2023-05-29T08:02:16;99958.00;;;20.72;28.95
72802;BME280;61891;55.818;37.084;2023-05-29T08:05:03;99950.91;;;20.84;28.93
72802;BME280;61891;55.818;37.084;2023-05-29T08:07:29;99942.53;;;20.92;28.73
72802;BME280;61891;55.818;37.084;2023-05-29T08:09:56;99911.31;;;20.78;28.59
72802;BME280;61891;55.818;37.084;2023-05-29T08:12:21;99957.88;;;21.16;28.00
72802;BME280;61891;55.818;37.084;2023-05-29T08:14:48;99875.91;;;20.74;28.57
72802;BME280;61891;55.818;37.084;2023-05-29T08:17:14;99958.16;;;21.33;27.26
72802;BME280;61891;55.818;37.084;2023-05-29T08:19:40;99939.34;;;21.27;28.44
72802;BME280;61891;55.818;37.084;2023-05-29T08:22:05;99958.31;;;21.38;26.83
72802;BME280;61891;55.818;37.084;2023-05-29T08:24:31;99962.59;;;21.46;28.65
72802;BME280;61891;55.818;37.084;2023-05-29T08:26:57;99958.72;;;21.60;26.89
72802;BME280;61891;55.818;37.084;2023-05-29T08:29:22;99940.34;;;21.50;28.63
72802;BME280;61891;55.818;37.084;2023-05-29T08:31:48;99885.41;;;21.27;27.74
72802;BME280;61891;55.818;37.084;2023-05-29T08:34:16;99922.22;;;21.58;27.53
72802;BME280;61891;55.818;37.084;2023-05-29T08:36:43;99961.16;;;22.05;27.40
72802;BME280;61891;55.818;37.084;2023-05-29T08:39:08;99959.81;;;22.56;26.06
72802;BME280;61891;55.818;37.084;2023-05-29T08:43:59;99953.50;;;23.73;25.00
72802;BME280;61891;55.818;37.084;2023-05-29T08:46:32;99907.53;;;23.90;24.94
72802;BME280;61891;55.818;37.084;2023-05-29T08:49:00;99804.31;;;23.58;24.83
72802;BME280;61891;55.818;37.084;2023-05-29T08:51:31;99861.16;;;24.15;24.53
72802;BME280;61891;55.818;37.084;2023-05-29T08:53:59;99949.16;;;24.86;24.06
72802;BME280;61891;55.818;37.084;2023-05-29T08:56:25;99937.28;;;25.04;23.46
72802;BME280;61891;55.818;37.084;2023-05-29T08:58:51;99941.75;;;25.49;23.79
72802;BME280;61891;55.818;37.084;2023-05-29T09:01:18;99916.88;;;25.57;23.05
72802;BME280;61891;55.818;37.084;2023-05-29T09:03:46;99955.25;;;25.82;22.99
72802;BME280;61891;55.818;37.084;2023-05-29T09:06:12;99932.81;;;25.70;21.67
72802;BME280;61891;55.818;37.084;2023-05-29T09:08:38;99942.09;;;25.96;22.18
72802;BME280;61891;55.818;37.084;2023-05-29T09:11:04;99909.72;;;26.11;22.05
72802;BME280;61891;55.818;37.084;2023-05-29T09:13:29;99934.09;;;26.55;21.26
72802;BME280;61891;55.818;37.084;2023-05-29T09:15:59;99919.59;;;26.76;21.47
72802;BME280;61891;55.818;37.084;2023-05-29T09:18:29;99943.44;;;26.64;20.30
72802;BME280;61891;55.818;37.084;2023-05-29T09:20:55;99909.34;;;26.29;20.16
72802;BME280;61891;55.818;37.084;2023-05-29T09:23:20;99931.09;;;26.51;20.25
72802;BME280;61891;55.818;37.084;2023-05-29T09:25:51;99921.28;;;26.82;20.44
72802;BME280;61891;55.818;37.084;2023-05-29T09:28:18;99921.50;;;27.08;19.66
72802;BME280;61891;55.818;37.084;2023-05-29T09:34:02;99913.50;;;27.28;19.62
72802;BME280;61891;55.818;37.084;2023-05-29T09:36:28;99909.34;;;27.20;19.30
72802;BME280;61891;55.818;37.084;2023-05-29T09:38:54;99834.31;;;26.92;19.42
72802;BME280;61891;55.818;37.084;2023-05-29T09:41:21;99878.75;;;27.50;19.61
72802;BME280;61891;55.818;37.084;2023-05-29T09:43:49;99919.69;;;28.28;19.65
72802;BME280;61891;55.818;37.084;2023-05-29T09:46:16;99901.72;;;28.63;18.63
72802;BME280;61891;55.818;37.084;2023-05-29T09:48:45;99921.91;;;28.56;17.39
72802;BME280;61891;55.818;37.084;2023-05-29T09:51:21;99911.50;;;28.28;17.49
72802;BME280;61891;55.818;37.084;2023-05-29T09:53:48;99906.28;;;28.21;17.73
72802;BME280;61891;55.818;37.084;2023-05-29T09:56:17;99897.91;;;28.79;18.16
72802;BME280;61891;55.818;37.084;2023-05-29T09:58:44;99889.91;;;29.43;18.30
72802;BME280;61891;55.818;37.084;2023-05-29T10:01:15;99906.28;;;29.48;17.66
72802;BME280;61891;55.818;37.084;2023-05-29T10:03:43;99870.84;;;29.18;17.69
72802;BME280;61891;55.818;37.084;2023-05-29T10:06:16;99900.75;;;29.69;18.28
72802;BME280;61891;55.818;37.084;2023-05-29T10:08:47;99906.75;;;29.76;17.56
72802;BME280;61891;55.818;37.084;2023-05-29T10:11:21;99885.09;;;29.84;17.75
72802;BME280;61891;55.818;37.084;2023-05-29T10:13:52;99896.53;;;30.02;16.63
72802;BME280;61891;55.818;37.084;2023-05-29T10:16:21;99800.41;;;29.79;16.63
72802;BME280;61891;55.818;37.084;2023-05-29T10:18:54;99894.13;;;30.73;16.20
72802;BME280;61891;55.818;37.084;2023-05-29T10:21:21;99805.97;;;30.42;16.97
72802;BME280;61891;55.818;37.084;2023-05-29T10:23:49;99835.53;;;31.03;16.62
72802;BME280;61891;55.818;37.084;2023-05-29T10:26:21;99878.66;;;32.12;16.17
72802;BME280;61891;55.818;37.084;2023-05-29T10:32:01;99857.88;;;30.87;14.40
72802;BME280;61891;55.818;37.084;2023-05-29T10:37:37;99790.19;;;30.34;14.75
72802;BME280;61891;55.818;37.084;2023-05-29T10:40:10;99820.47;;;30.77;14.64
72802;BME280;61891;55.818;37.084;2023-05-29T10:42:41;99879.22;;;31.19;15.08
72802;BME280;61891;55.818;37.084;2023-05-29T10:45:08;99869.97;;;31.62;13.84
72802;BME280;61891;55.818;37.084;2023-05-29T10:47:35;99881.66;;;31.49;14.27
72802;BME280;61891;55.818;37.084;2023-05-29T10:50:01;99848.94;;;31.58;14.79
72802;BME280;61891;55.818;37.084;2023-05-29T10:52:34;99870.19;;;32.09;14.37
72802;BME280;61891;55.818;37.084;2023-05-29T10:55:01;99867.22;;;32.05;14.09
72802;BME280;61891;55.818;37.084;2023-05-29T10:57:30;99849.81;;;31.96;14.12
72802;BME280;61891;55.818;37.084;2023-05-29T11:00:06;99839.22;;;31.89;13.59
72802;BME280;61891;55.818;37.084;2023-05-29T11:02:37;99840.47;;;32.16;13.21
72802;BME280;61891;55.818;37.084;2023-05-29T11:05:22;99849.66;;;32.44;13.84
72802;BME280;61891;55.818;37.084;2023-05-29T11:08:00;99847.09;;;33.12;13.97
72802;BME280;61891;55.818;37.084;2023-05-29T11:11:05;99840.25;;;32.96;12.48
72802;BME280;61891;55.818;37.084;2023-05-29T11:13:34;99860.75;;;32.52;11.98
72802;BME280;61891;55.818;37.084;2023-05-29T11:18:52;99854.72;;;32.69;12.98
72802;BME280;61891;55.818;37.084;2023-05-29T11:24:24;99773.47;;;33.64;12.36
72802;BME280;61891;55.818;37.084;2023-05-29T11:26:52;99848.28;;;34.69;13.05
72802;BME280;61891;55.818;37.084;2023-05-29T11:29:27;99853.53;;;34.79;12.48
72802;BME280;61891;55.818;37.084;2023-05-29T11:34:27;99791.53;;;34.59;11.80
72802;BME280;61891;55.818;37.084;2023-05-29T11:36:53;99810.63;;;34.56;12.06
72802;BME280;61891;55.818;37.084;2023-05-29T11:39:19;99838.72;;;35.29;12.07
72802;BME280;61891;55.818;37.084;2023-05-29T11:41:50;99835.91;;;35.68;12.01
72802;BME280;61891;55.818;37.084;2023-05-29T11:44:16;99823.00;;;36.03;12.31
72802;BME280;61891;55.818;37.084;2023-05-29T11:46:45;99828.03;;;36.18;11.62
72802;BME280;61891;55.818;37.084;2023-05-29T11:49:10;99805.47;;;36.42;11.82
72802;BME280;61891;55.818;37.084;2023-05-29T11:51:36;99813.34;;;36.87;12.24
72802;BME280;61891;55.818;37.084;2023-05-29T11:54:02;99796.50;;;36.63;11.71
72802;BME280;61891;55.818;37.084;2023-05-29T11:56:28;99824.28;;;36.23;11.05
72802;BME280;61891;55.818;37.084;2023-05-29T11:58:55;99832.44;;;36.45;11.26
72802;BME280;61891;55.818;37.084;2023-05-29T12:01:23;99793.44;;;36.38;11.40
72802;BME280;61891;55.818;37.084;2023-05-29T12:03:50;99803.28;;;36.83;11.12
72802;BME280;61891;55.818;37.084;2023-05-29T12:06:30;99803.94;;;37.77;11.82
72802;BME280;61891;55.818;37.084;2023-05-29T12:08:57;99803.66;;;38.11;11.71
72802;BME280;61891;55.818;37.084;2023-05-29T12:11:23;99783.78;;;38.30;11.06
72802;BME280;61891;55.818;37.084;2023-05-29T12:13:56;99801.84;;;38.15;10.42
72802;BME280;61891;55.818;37.084;2023-05-29T12:16:22;99755.41;;;38.33;10.94
72802;BME280;61891;55.818;37.084;2023-05-29T12:18:49;99796.19;;;38.45;10.88
72802;BME280;61891;55.818;37.084;2023-05-29T12:21:14;99795.19;;;39.07;11.45
72802;BME280;61891;55.818;37.084;2023-05-29T12:23:40;99791.25;;;39.08;10.98
72802;BME280;61891;55.818;37.084;2023-05-29T12:26:06;99785.31;;;38.73;11.12
72802;BME280;61891;55.818;37.084;2023-05-29T12:28:32;99802.16;;;38.80;10.39
72802;BME280;61891;55.818;37.084;2023-05-29T12:30:59;99772.69;;;38.63;10.83
72802;BME280;61891;55.818;37.084;2023-05-29T12:33:30;99791.69;;;39.22;10.75
72802;BME280;61891;55.818;37.084;2023-05-29T12:36:07;99798.16;;;39.26;10.02
72802;BME280;61891;55.818;37.084;2023-05-29T12:38:51;99773.88;;;38.74;10.26
72802;BME280;61891;55.818;37.084;2023-05-29T12:41:26;99786.81;;;38.94;10.48
72802;BME280;61891;55.818;37.084;2023-05-29T12:43:54;99784.63;;;39.00;10.84
72802;BME280;61891;55.818;37.084;2023-05-29T12:46:27;99797.63;;;38.63;10.29
72802;BME280;61891;55.818;37.084;2023-05-29T12:48:56;99780.34;;;38.90;10.26
72802;BME280;61891;55.818;37.084;2023-05-29T12:51:26;99770.88;;;38.91;10.12
72802;BME280;61891;55.818;37.084;2023-05-29T12:53:52;99775.56;;;38.21;9.66
72802;BME280;61891;55.818;37.084;2023-05-29T12:56:24;99752.75;;;38.03;10.38
72802;BME280;61891;55.818;37.084;2023-05-29T12:58:52;99785.72;;;38.17;9.69
72802;BME280;61891;55.818;37.084;2023-05-29T13:01:18;99772.03;;;38.12;9.22
72802;BME280;61891;55.818;37.084;2023-05-29T13:03:44;99773.50;;;38.63;10.45
72802;BME280;61891;55.818;37.084;2023-05-29T13:06:10;99772.75;;;39.48;10.20
72802;BME280;61891;55.818;37.084;2023-05-29T13:08:37;99750.31;;;39.93;10.20
72802;BME280;61891;55.818;37.084;2023-05-29T13:11:03;99793.19;;;39.31;9.53
72802;BME280;61891;55.818;37.084;2023-05-29T13:13:28;99773.16;;;38.65;9.70
72802;BME280;61891;55.818;37.084;2023-05-29T13:15:54;99779.69;;;38.15;9.55
72802;BME280;61891;55.818;37.084;2023-05-29T13:18:20;99786.03;;;38.16;9.37
72802;BME280;61891;55.818;37.084;2023-05-29T13:20:46;99783.28;;;37.95;9.52
72802;BME280;61891;55.818;37.084;2023-05-29T13:23:12;99779.03;;;37.26;9.39
72802;BME280;61891;55.818;37.084;2023-05-29T13:25:38;99764.88;;;37.49;9.81